sensor_id;sensor_type;location;lat;lon;timestamp;P1;durP1;ratioP1;P2;durP2;ratioP2
8594;SDS011;4335;48.860;9.198;2023-01-09T00:01:30;5.77;;;4.83;;
8594;SDS011;4335;48.860;9.198;2023-01-09T00:03:59;5.50;;;4.30;;
8594;SDS011;4335;48.860;9.198;2023-01-09T00:06:32;7.87;;;5.40;;
8594;SDS011;4335;48.860;9.198;2023-01-09T00:08:59;4.57;;;4.17;;
8594;SDS011;4335;48.860;9.198;2023-01-09T00:11:27;4.67;;;3.97;;
8594;SDS011;4335;48.860;9.198;2023-01-09T00:13:53;4.40;;;4.00;;
8594;SDS011;4335;48.860;9.198;2023-01-09T00:16:20;4.97;;;3.90;;
8594;SDS011;4335;48.860;9.198;2023-01-09T00:18:47;4.20;;;3.80;;
8594;SDS011;4335;48.860;9.198;2023-01-09T00:21:14;4.07;;;3.63;;
8594;SDS011;4335;48.860;9.198;2023-01-09T00:23:41;4.77;;;3.70;;
8594;SDS011;4335;48.860;9.198;2023-01-09T00:26:09;5.17;;;4.30;;
8594;SDS011;4335;48.860;9.198;2023-01-09T00:28:38;4.80;;;4.33;;
8594;SDS011;4335;48.860;9.198;2023-01-09T00:31:05;4.67;;;4.20;;
8594;SDS011;4335;48.860;9.198;2023-01-09T00:33:33;4.63;;;4.23;;
8594;SDS011;4335;48.860;9.198;2023-01-09T00:36:01;4.73;;;4.17;;
8594;SDS011;4335;48.860;9.198;2023-01-09T00:38:28;4.07;;;3.67;;
8594;SDS011;4335;48.860;9.198;2023-01-09T00:40:54;3.97;;;3.57;;
8594;SDS011;4335;48.860;9.198;2023-01-09T00:43:24;3.87;;;3.53;;
8594;SDS011;4335;48.860;9.198;2023-01-09T00:45:54;4.10;;;3.30;;
8594;SDS011;4335;48.860;9.198;2023-01-09T00:48:25;3.60;;;3.30;;
8594;SDS011;4335;48.860;9.198;2023-01-09T00:50:54;5.33;;;4.80;;
8594;SDS011;4335;48.860;9.198;2023-01-09T00:53:24;3.77;;;3.47;;
8594;SDS011;4335;48.860;9.198;2023-01-09T00:55:54;3.30;;;3.00;;
8594;SDS011;4335;48.860;9.198;2023-01-09T00:58:24;3.43;;;3.13;;
8594;SDS011;4335;48.860;9.198;2023-01-09T01:00:56;4.10;;;3.23;;
8594;SDS011;4335;48.860;9.198;2023-01-09T01:03:23;3.83;;;3.20;;
8594;SDS011;4335;48.860;9.198;2023-01-09T01:05:50;3.00;;;2.70;;
8594;SDS011;4335;48.860;9.198;2023-01-09T01:08:34;3.17;;;2.53;;
8594;SDS011;4335;48.860;9.198;2023-01-09T01:11:07;2.60;;;2.40;;
8594;SDS011;4335;48.860;9.198;2023-01-09T01:13:38;2.23;;;1.97;;
8594;SDS011;4335;48.860;9.198;2023-01-09T01:16:06;2.50;;;1.77;;
8594;SDS011;4335;48.860;9.198;2023-01-09T01:18:34;2.00;;;1.77;;
8594;SDS011;4335;48.860;9.198;2023-01-09T01:21:04;1.50;;;1.40;;
8594;SDS011;4335;48.860;9.198;2023-01-09T01:23:35;1.60;;;1.50;;
8594;SDS011;4335;48.860;9.198;2023-01-09T01:26:05;1.70;;;1.50;;
8594;SDS011;4335;48.860;9.198;2023-01-09T01:28:33;1.50;;;1.40;;
8594;SDS011;4335;48.860;9.198;2023-01-09T01:31:03;1.47;;;1.37;;
8594;SDS011;4335;48.860;9.198;2023-01-09T01:33:30;1.70;;;1.43;;
8594;SDS011;4335;48.860;9.198;2023-01-09T01:36:01;1.17;;;1.07;;
8594;SDS011;4335;48.860;9.198;2023-01-09T01:38:32;2.40;;;1.30;;
8594;SDS011;4335;48.860;9.198;2023-01-09T01:40:59;1.20;;;1.10;;
8594;SDS011;4335;48.860;9.198;2023-01-09T01:43:27;1.50;;;1.40;;
8594;SDS011;4335;48.860;9.198;2023-01-09T01:46:17;1.30;;;1.10;;
8594;SDS011;4335;48.860;9.198;2023-01-09T01:48:43;1.30;;;1.20;;
8594;SDS011;4335;48.860;9.198;2023-01-09T01:51:20;2.43;;;1.50;;
8594;SDS011;4335;48.860;9.198;2023-01-09T01:53:50;1.13;;;1.03;;
8594;SDS011;4335;48.860;9.198;2023-01-09T01:56:21;1.33;;;1.23;;
8594;SDS011;4335;48.860;9.198;2023-01-09T01:58:51;2.97;;;1.30;;
8594;SDS011;4335;48.860;9.198;2023-01-09T02:01:24;1.17;;;1.03;;
8594;SDS011;4335;48.860;9.198;2023-01-09T02:03:52;0.93;;;0.90;;
8594;SDS011;4335;48.860;9.198;2023-01-09T02:06:22;1.20;;;1.10;;
8594;SDS011;4335;48.860;9.198;2023-01-09T02:08:49;0.80;;;0.80;;
8594;SDS011;4335;48.860;9.198;2023-01-09T02:11:19;0.90;;;0.90;;
8594;SDS011;4335;48.860;9.198;2023-01-09T02:13:49;0.90;;;0.90;;
8594;SDS011;4335;48.860;9.198;2023-01-09T02:16:21;2.17;;;1.10;;
8594;SDS011;4335;48.860;9.198;2023-01-09T02:19:11;0.80;;;0.80;;
8594;SDS011;4335;48.860;9.198;2023-01-09T02:21:58;0.90;;;0.90;;
8594;SDS011;4335;48.860;9.198;2023-01-09T02:27:33;1.00;;;1.00;;
8594;SDS011;4335;48.860;9.198;2023-01-09T02:30:29;0.90;;;0.90;;
8594;SDS011;4335;48.860;9.198;2023-01-09T02:33:17;1.47;;;0.80;;
8594;SDS011;4335;48.860;9.198;2023-01-09T02:35:57;1.00;;;0.80;;
8594;SDS011;4335;48.860;9.198;2023-01-09T02:38:31;2.20;;;1.00;;
8594;SDS011;4335;48.860;9.198;2023-01-09T02:41:07;1.13;;;0.80;;
8594;SDS011;4335;48.860;9.198;2023-01-09T02:43:39;2.03;;;0.90;;
8594;SDS011;4335;48.860;9.198;2023-01-09T02:46:09;1.10;;;1.00;;
8594;SDS011;4335;48.860;9.198;2023-01-09T02:48:44;0.70;;;0.70;;
8594;SDS011;4335;48.860;9.198;2023-01-09T02:51:16;1.00;;;0.90;;
8594;SDS011;4335;48.860;9.198;2023-01-09T02:54:01;0.90;;;0.83;;
8594;SDS011;4335;48.860;9.198;2023-01-09T02:56:48;0.83;;;0.70;;
8594;SDS011;4335;48.860;9.198;2023-01-09T02:59:33;1.10;;;1.00;;
8594;SDS011;4335;48.860;9.198;2023-01-09T03:02:21;1.57;;;0.90;;
8594;SDS011;4335;48.860;9.198;2023-01-09T03:05:02;1.10;;;1.00;;
8594;SDS011;4335;48.860;9.198;2023-01-09T03:07:33;1.07;;;0.97;;
8594;SDS011;4335;48.860;9.198;2023-01-09T03:10:05;1.10;;;1.00;;
8594;SDS011;4335;48.860;9.198;2023-01-09T03:12:37;1.17;;;1.10;;
8594;SDS011;4335;48.860;9.198;2023-01-09T03:15:05;0.73;;;0.63;;
8594;SDS011;4335;48.860;9.198;2023-01-09T03:17:37;0.70;;;0.70;;
8594;SDS011;4335;48.860;9.198;2023-01-09T03:20:07;0.70;;;0.70;;
8594;SDS011;4335;48.860;9.198;2023-01-09T03:22:37;1.10;;;1.00;;
8594;SDS011;4335;48.860;9.198;2023-01-09T03:25:05;0.60;;;0.60;;
8594;SDS011;4335;48.860;9.198;2023-01-09T03:27:32;0.70;;;0.70;;
8594;SDS011;4335;48.860;9.198;2023-01-09T03:30:02;0.90;;;0.90;;
8594;SDS011;4335;48.860;9.198;2023-01-09T03:32:29;0.80;;;0.80;;
8594;SDS011;4335;48.860;9.198;2023-01-09T03:35:04;0.87;;;0.80;;
8594;SDS011;4335;48.860;9.198;2023-01-09T03:37:31;0.73;;;0.73;;
8594;SDS011;4335;48.860;9.198;2023-01-09T03:39:58;0.60;;;0.60;;
8594;SDS011;4335;48.860;9.198;2023-01-09T03:42:24;1.03;;;0.93;;
8594;SDS011;4335;48.860;9.198;2023-01-09T03:44:51;0.60;;;0.60;;
8594;SDS011;4335;48.860;9.198;2023-01-09T03:47:21;0.90;;;0.90;;
8594;SDS011;4335;48.860;9.198;2023-01-09T03:49:47;1.40;;;1.10;;
8594;SDS011;4335;48.860;9.198;2023-01-09T03:52:22;1.03;;;0.93;;
8594;SDS011;4335;48.860;9.198;2023-01-09T03:54:49;0.70;;;0.70;;
8594;SDS011;4335;48.860;9.198;2023-01-09T03:57:16;1.03;;;0.87;;
8594;SDS011;4335;48.860;9.198;2023-01-09T03:59:42;0.70;;;0.70;;
8594;SDS011;4335;48.860;9.198;2023-01-09T04:02:09;1.77;;;0.90;;
8594;SDS011;4335;48.860;9.198;2023-01-09T04:04:36;1.00;;;0.90;;
8594;SDS011;4335;48.860;9.198;2023-01-09T04:07:02;0.67;;;0.67;;
8594;SDS011;4335;48.860;9.198;2023-01-09T04:09:30;0.60;;;0.60;;
8594;SDS011;4335;48.860;9.198;2023-01-09T04:11:57;0.70;;;0.70;;
8594;SDS011;4335;48.860;9.198;2023-01-09T04:14:23;0.77;;;0.73;;
8594;SDS011;4335;48.860;9.198;2023-01-09T04:16:50;0.80;;;0.80;;
8594;SDS011;4335;48.860;9.198;2023-01-09T04:19:16;0.83;;;0.60;;
8594;SDS011;4335;48.860;9.198;2023-01-09T04:21:43;0.90;;;0.90;;
8594;SDS011;4335;48.860;9.198;2023-01-09T04:24:13;0.63;;;0.63;;
8594;SDS011;4335;48.860;9.198;2023-01-09T04:26:41;1.10;;;1.00;;
8594;SDS011;4335;48.860;9.198;2023-01-09T04:29:07;0.83;;;0.80;;
8594;SDS011;4335;48.860;9.198;2023-01-09T04:31:34;0.80;;;0.80;;
8594;SDS011;4335;48.860;9.198;2023-01-09T04:34:00;0.80;;;0.80;;
8594;SDS011;4335;48.860;9.198;2023-01-09T04:36:27;0.87;;;0.83;;
8594;SDS011;4335;48.860;9.198;2023-01-09T04:38:58;0.60;;;0.60;;
8594;SDS011;4335;48.860;9.198;2023-01-09T04:41:25;0.43;;;0.43;;
8594;SDS011;4335;48.860;9.198;2023-01-09T04:44:10;1.10;;;0.90;;
8594;SDS011;4335;48.860;9.198;2023-01-09T04:46:37;1.07;;;0.97;;
8594;SDS011;4335;48.860;9.198;2023-01-09T04:49:06;0.70;;;0.70;;
8594;SDS011;4335;48.860;9.198;2023-01-09T04:51:33;0.73;;;0.73;;
8594;SDS011;4335;48.860;9.198;2023-01-09T04:53:59;0.90;;;0.90;;
8594;SDS011;4335;48.860;9.198;2023-01-09T04:56:26;0.70;;;0.70;;
8594;SDS011;4335;48.860;9.198;2023-01-09T04:58:56;0.70;;;0.70;;
8594;SDS011;4335;48.860;9.198;2023-01-09T05:01:23;1.00;;;1.00;;
8594;SDS011;4335;48.860;9.198;2023-01-09T05:03:50;1.10;;;1.00;;
8594;SDS011;4335;48.860;9.198;2023-01-09T05:06:19;0.87;;;0.87;;
8594;SDS011;4335;48.860;9.198;2023-01-09T05:08:46;2.00;;;0.80;;
8594;SDS011;4335;48.860;9.198;2023-01-09T05:11:13;0.80;;;0.80;;
8594;SDS011;4335;48.860;9.198;2023-01-09T05:13:39;1.30;;;1.00;;
8594;SDS011;4335;48.860;9.198;2023-01-09T05:16:06;1.20;;;1.10;;
8594;SDS011;4335;48.860;9.198;2023-01-09T05:18:34;1.10;;;1.00;;
8594;SDS011;4335;48.860;9.198;2023-01-09T05:21:01;1.20;;;1.10;;
8594;SDS011;4335;48.860;9.198;2023-01-09T05:23:28;2.47;;;1.10;;
8594;SDS011;4335;48.860;9.198;2023-01-09T05:25:58;1.67;;;1.53;;
8594;SDS011;4335;48.860;9.198;2023-01-09T05:28:24;1.37;;;1.17;;
8594;SDS011;4335;48.860;9.198;2023-01-09T05:30:54;1.90;;;1.30;;
8594;SDS011;4335;48.860;9.198;2023-01-09T05:33:21;1.90;;;1.17;;
8594;SDS011;4335;48.860;9.198;2023-01-09T05:35:48;1.70;;;0.90;;
8594;SDS011;4335;48.860;9.198;2023-01-09T05:38:15;1.60;;;1.00;;
8594;SDS011;4335;48.860;9.198;2023-01-09T05:40:42;1.50;;;1.23;;
8594;SDS011;4335;48.860;9.198;2023-01-09T05:43:08;5.73;;;2.90;;
8594;SDS011;4335;48.860;9.198;2023-01-09T05:45:37;1.83;;;1.10;;
8594;SDS011;4335;48.860;9.198;2023-01-09T05:48:06;2.33;;;1.07;;
8594;SDS011;4335;48.860;9.198;2023-01-09T05:50:33;1.57;;;1.07;;
8594;SDS011;4335;48.860;9.198;2023-01-09T05:53:04;1.10;;;1.00;;
8594;SDS011;4335;48.860;9.198;2023-01-09T05:55:33;2.07;;;1.30;;
8594;SDS011;4335;48.860;9.198;2023-01-09T05:58:00;1.83;;;1.00;;
8594;SDS011;4335;48.860;9.198;2023-01-09T06:00:32;0.90;;;0.90;;
8594;SDS011;4335;48.860;9.198;2023-01-09T06:02:59;1.50;;;1.23;;
8594;SDS011;4335;48.860;9.198;2023-01-09T06:05:26;2.13;;;1.00;;
8594;SDS011;4335;48.860;9.198;2023-01-09T06:07:56;2.33;;;1.20;;
8594;SDS011;4335;48.860;9.198;2023-01-09T06:10:23;2.30;;;1.50;;
8594;SDS011;4335;48.860;9.198;2023-01-09T06:12:50;1.67;;;1.53;;
8594;SDS011;4335;48.860;9.198;2023-01-09T06:15:18;1.27;;;1.03;;
8594;SDS011;4335;48.860;9.198;2023-01-09T06:17:45;1.57;;;1.20;;
8594;SDS011;4335;48.860;9.198;2023-01-09T06:20:15;2.10;;;1.40;;
8594;SDS011;4335;48.860;9.198;2023-01-09T06:22:42;3.17;;;2.03;;
8594;SDS011;4335;48.860;9.198;2023-01-09T06:25:09;1.97;;;1.30;;
8594;SDS011;4335;48.860;9.198;2023-01-09T06:27:40;2.10;;;1.43;;
8594;SDS011;4335;48.860;9.198;2023-01-09T06:30:08;2.77;;;1.20;;
8594;SDS011;4335;48.860;9.198;2023-01-09T06:32:35;2.77;;;1.50;;
8594;SDS011;4335;48.860;9.198;2023-01-09T06:35:02;2.27;;;1.20;;
8594;SDS011;4335;48.860;9.198;2023-01-09T06:37:29;2.47;;;1.30;;
8594;SDS011;4335;48.860;9.198;2023-01-09T06:39:59;2.60;;;1.10;;
8594;SDS011;4335;48.860;9.198;2023-01-09T06:42:29;2.17;;;1.50;;
8594;SDS011;4335;48.860;9.198;2023-01-09T06:44:57;1.83;;;1.20;;
8594;SDS011;4335;48.860;9.198;2023-01-09T06:47:23;3.63;;;1.20;;
8594;SDS011;4335;48.860;9.198;2023-01-09T06:49:50;2.03;;;1.40;;
8594;SDS011;4335;48.860;9.198;2023-01-09T06:52:16;2.67;;;1.30;;
8594;SDS011;4335;48.860;9.198;2023-01-09T06:54:43;1.97;;;1.03;;
8594;SDS011;4335;48.860;9.198;2023-01-09T06:57:10;2.23;;;1.20;;
8594;SDS011;4335;48.860;9.198;2023-01-09T06:59:38;1.93;;;1.20;;
8594;SDS011;4335;48.860;9.198;2023-01-09T07:02:07;1.27;;;1.10;;
8594;SDS011;4335;48.860;9.198;2023-01-09T07:04:45;3.00;;;1.27;;
8594;SDS011;4335;48.860;9.198;2023-01-09T07:07:12;1.20;;;1.10;;
8594;SDS011;4335;48.860;9.198;2023-01-09T07:09:39;1.83;;;1.20;;
8594;SDS011;4335;48.860;9.198;2023-01-09T07:12:06;3.07;;;1.17;;
8594;SDS011;4335;48.860;9.198;2023-01-09T07:14:38;1.67;;;1.10;;
8594;SDS011;4335;48.860;9.198;2023-01-09T07:17:06;3.57;;;1.20;;
8594;SDS011;4335;48.860;9.198;2023-01-09T07:19:39;2.00;;;1.30;;
8594;SDS011;4335;48.860;9.198;2023-01-09T07:22:05;3.40;;;1.60;;
8594;SDS011;4335;48.860;9.198;2023-01-09T07:24:32;4.00;;;1.63;;
8594;SDS011;4335;48.860;9.198;2023-01-09T07:26:59;5.77;;;2.33;;
8594;SDS011;4335;48.860;9.198;2023-01-09T07:29:29;4.13;;;1.30;;
8594;SDS011;4335;48.860;9.198;2023-01-09T07:31:56;2.60;;;1.30;;
8594;SDS011;4335;48.860;9.198;2023-01-09T07:34:23;3.37;;;1.47;;
8594;SDS011;4335;48.860;9.198;2023-01-09T07:36:50;5.03;;;2.17;;
8594;SDS011;4335;48.860;9.198;2023-01-09T07:39:17;3.70;;;2.03;;
8594;SDS011;4335;48.860;9.198;2023-01-09T07:41:44;3.73;;;1.73;;
8594;SDS011;4335;48.860;9.198;2023-01-09T07:44:14;3.40;;;1.90;;
8594;SDS011;4335;48.860;9.198;2023-01-09T07:46:41;2.97;;;1.53;;
8594;SDS011;4335;48.860;9.198;2023-01-09T07:49:08;4.83;;;2.90;;
8594;SDS011;4335;48.860;9.198;2023-01-09T07:51:35;4.67;;;2.83;;
8594;SDS011;4335;48.860;9.198;2023-01-09T07:54:06;5.23;;;1.87;;
8594;SDS011;4335;48.860;9.198;2023-01-09T07:56:33;3.07;;;2.20;;
8594;SDS011;4335;48.860;9.198;2023-01-09T07:59:00;4.90;;;2.50;;
8594;SDS011;4335;48.860;9.198;2023-01-09T08:01:27;2.60;;;1.90;;
8594;SDS011;4335;48.860;9.198;2023-01-09T08:03:54;2.23;;;1.63;;
8594;SDS011;4335;48.860;9.198;2023-01-09T08:06:20;1.70;;;1.43;;
8594;SDS011;4335;48.860;9.198;2023-01-09T08:08:48;3.27;;;2.17;;
8594;SDS011;4335;48.860;9.198;2023-01-09T08:11:15;1.97;;;1.57;;
8594;SDS011;4335;48.860;9.198;2023-01-09T08:13:42;3.40;;;1.70;;
8594;SDS011;4335;48.860;9.198;2023-01-09T08:16:08;1.97;;;1.27;;
8594;SDS011;4335;48.860;9.198;2023-01-09T08:18:35;3.83;;;1.30;;
8594;SDS011;4335;48.860;9.198;2023-01-09T08:21:02;4.77;;;1.90;;
8594;SDS011;4335;48.860;9.198;2023-01-09T08:23:28;3.00;;;1.47;;
8594;SDS011;4335;48.860;9.198;2023-01-09T08:25:56;1.80;;;1.10;;
8594;SDS011;4335;48.860;9.198;2023-01-09T08:28:23;1.30;;;1.20;;
8594;SDS011;4335;48.860;9.198;2023-01-09T08:30:49;3.33;;;2.10;;
8594;SDS011;4335;48.860;9.198;2023-01-09T08:33:16;3.83;;;2.23;;
8594;SDS011;4335;48.860;9.198;2023-01-09T08:35:49;2.93;;;1.60;;
8594;SDS011;4335;48.860;9.198;2023-01-09T08:38:15;2.03;;;1.10;;
8594;SDS011;4335;48.860;9.198;2023-01-09T08:40:45;4.93;;;1.63;;
8594;SDS011;4335;48.860;9.198;2023-01-09T08:43:19;2.90;;;1.50;;
8594;SDS011;4335;48.860;9.198;2023-01-09T08:46:04;1.93;;;1.30;;
8594;SDS011;4335;48.860;9.198;2023-01-09T08:49:00;3.30;;;1.73;;
8594;SDS011;4335;48.860;9.198;2023-01-09T08:51:29;3.20;;;1.67;;
8594;SDS011;4335;48.860;9.198;2023-01-09T08:53:56;2.07;;;1.77;;
8594;SDS011;4335;48.860;9.198;2023-01-09T08:56:22;2.23;;;1.23;;
8594;SDS011;4335;48.860;9.198;2023-01-09T08:58:50;1.33;;;1.00;;
8594;SDS011;4335;48.860;9.198;2023-01-09T09:01:16;4.43;;;1.80;;
8594;SDS011;4335;48.860;9.198;2023-01-09T09:03:43;4.50;;;1.57;;
8594;SDS011;4335;48.860;9.198;2023-01-09T09:06:16;1.27;;;1.07;;
8594;SDS011;4335;48.860;9.198;2023-01-09T09:08:43;2.10;;;1.10;;
8594;SDS011;4335;48.860;9.198;2023-01-09T09:11:09;1.63;;;1.23;;
8594;SDS011;4335;48.860;9.198;2023-01-09T09:13:36;2.23;;;1.67;;
8594;SDS011;4335;48.860;9.198;2023-01-09T09:16:04;3.30;;;1.50;;
8594;SDS011;4335;48.860;9.198;2023-01-09T09:18:31;4.33;;;1.40;;
8594;SDS011;4335;48.860;9.198;2023-01-09T09:21:00;2.97;;;1.70;;
8594;SDS011;4335;48.860;9.198;2023-01-09T09:23:27;3.10;;;1.50;;
8594;SDS011;4335;48.860;9.198;2023-01-09T09:25:54;2.17;;;1.20;;
8594;SDS011;4335;48.860;9.198;2023-01-09T09:28:20;4.47;;;1.50;;
8594;SDS011;4335;48.860;9.198;2023-01-09T09:30:47;3.33;;;1.30;;
8594;SDS011;4335;48.860;9.198;2023-01-09T09:33:17;1.33;;;1.20;;
8594;SDS011;4335;48.860;9.198;2023-01-09T09:35:44;2.10;;;1.40;;
8594;SDS011;4335;48.860;9.198;2023-01-09T09:38:11;2.57;;;1.57;;
8594;SDS011;4335;48.860;9.198;2023-01-09T09:40:47;7.20;;;1.70;;
8594;SDS011;4335;48.860;9.198;2023-01-09T09:46:39;3.03;;;1.50;;
8594;SDS011;4335;48.860;9.198;2023-01-09T09:49:15;1.40;;;1.10;;
8594;SDS011;4335;48.860;9.198;2023-01-09T09:51:49;3.60;;;1.60;;
8594;SDS011;4335;48.860;9.198;2023-01-09T09:54:26;4.60;;;1.43;;
8594;SDS011;4335;48.860;9.198;2023-01-09T09:56:59;2.97;;;1.17;;
8594;SDS011;4335;48.860;9.198;2023-01-09T09:59:29;2.67;;;1.20;;
8594;SDS011;4335;48.860;9.198;2023-01-09T10:01:58;3.53;;;1.60;;
8594;SDS011;4335;48.860;9.198;2023-01-09T10:04:29;5.03;;;1.20;;
8594;SDS011;4335;48.860;9.198;2023-01-09T10:06:59;1.70;;;1.17;;
8594;SDS011;4335;48.860;9.198;2023-01-09T10:09:37;2.03;;;1.00;;
8594;SDS011;4335;48.860;9.198;2023-01-09T10:12:18;3.60;;;1.47;;
8594;SDS011;4335;48.860;9.198;2023-01-09T10:14:51;1.17;;;0.97;;
8594;SDS011;4335;48.860;9.198;2023-01-09T10:17:30;3.03;;;1.10;;
8594;SDS011;4335;48.860;9.198;2023-01-09T10:20:24;5.20;;;1.40;;
8594;SDS011;4335;48.860;9.198;2023-01-09T10:23:11;3.40;;;1.60;;
8594;SDS011;4335;48.860;9.198;2023-01-09T10:25:59;3.33;;;1.60;;
8594;SDS011;4335;48.860;9.198;2023-01-09T10:28:43;2.23;;;1.27;;
8594;SDS011;4335;48.860;9.198;2023-01-09T10:31:21;5.53;;;2.47;;
8594;SDS011;4335;48.860;9.198;2023-01-09T10:33:58;3.70;;;1.67;;
8594;SDS011;4335;48.860;9.198;2023-01-09T10:39:25;2.53;;;1.70;;
8594;SDS011;4335;48.860;9.198;2023-01-09T10:41:57;3.50;;;1.40;;
8594;SDS011;4335;48.860;9.198;2023-01-09T10:44:36;2.90;;;1.50;;
8594;SDS011;4335;48.860;9.198;2023-01-09T10:47:10;6.30;;;1.20;;
8594;SDS011;4335;48.860;9.198;2023-01-09T10:49:46;3.57;;;1.87;;
8594;SDS011;4335;48.860;9.198;2023-01-09T10:52:17;3.70;;;1.40;;
8594;SDS011;4335;48.860;9.198;2023-01-09T10:54:54;3.30;;;1.80;;
8594;SDS011;4335;48.860;9.198;2023-01-09T10:57:26;3.33;;;1.20;;
8594;SDS011;4335;48.860;9.198;2023-01-09T11:00:16;3.20;;;1.30;;
8594;SDS011;4335;48.860;9.198;2023-01-09T11:03:02;1.23;;;1.13;;
8594;SDS011;4335;48.860;9.198;2023-01-09T11:05:29;1.70;;;1.27;;
8594;SDS011;4335;48.860;9.198;2023-01-09T11:07:57;2.63;;;1.40;;
8594;SDS011;4335;48.860;9.198;2023-01-09T11:10:42;2.73;;;1.57;;
8594;SDS011;4335;48.860;9.198;2023-01-09T11:13:17;4.60;;;1.37;;
8594;SDS011;4335;48.860;9.198;2023-01-09T11:15:47;1.73;;;1.10;;
8594;SDS011;4335;48.860;9.198;2023-01-09T11:18:34;2.80;;;1.50;;
8594;SDS011;4335;48.860;9.198;2023-01-09T11:23:55;3.97;;;1.23;;
8594;SDS011;4335;48.860;9.198;2023-01-09T11:26:41;4.30;;;1.20;;
8594;SDS011;4335;48.860;9.198;2023-01-09T11:29:09;2.73;;;1.40;;
8594;SDS011;4335;48.860;9.198;2023-01-09T11:31:50;3.33;;;2.10;;
8594;SDS011;4335;48.860;9.198;2023-01-09T11:34:20;5.50;;;1.70;;
8594;SDS011;4335;48.860;9.198;2023-01-09T11:36:53;2.33;;;1.47;;
8594;SDS011;4335;48.860;9.198;2023-01-09T11:39:29;2.30;;;1.40;;
8594;SDS011;4335;48.860;9.198;2023-01-09T11:42:00;2.00;;;1.33;;
8594;SDS011;4335;48.860;9.198;2023-01-09T11:44:31;1.97;;;1.27;;
8594;SDS011;4335;48.860;9.198;2023-01-09T11:47:00;3.77;;;1.70;;
8594;SDS011;4335;48.860;9.198;2023-01-09T11:49:32;5.07;;;2.00;;
8594;SDS011;4335;48.860;9.198;2023-01-09T11:52:04;3.97;;;1.70;;
8594;SDS011;4335;48.860;9.198;2023-01-09T11:54:44;3.37;;;1.47;;
8594;SDS011;4335;48.860;9.198;2023-01-09T11:57:15;1.97;;;1.10;;
8594;SDS011;4335;48.860;9.198;2023-01-09T11:59:42;2.37;;;1.20;;
8594;SDS011;4335;48.860;9.198;2023-01-09T12:02:22;2.97;;;1.50;;
8594;SDS011;4335;48.860;9.198;2023-01-09T12:05:00;1.97;;;1.20;;
8594;SDS011;4335;48.860;9.198;2023-01-09T12:13:32;4.93;;;1.87;;
8594;SDS011;4335;48.860;9.198;2023-01-09T12:16:18;6.13;;;1.50;;
8594;SDS011;4335;48.860;9.198;2023-01-09T12:18:56;4.10;;;1.38;;
8594;SDS011;4335;48.860;9.198;2023-01-09T12:21:44;3.37;;;1.70;;
8594;SDS011;4335;48.860;9.198;2023-01-09T12:24:31;4.23;;;1.40;;
8594;SDS011;4335;48.860;9.198;2023-01-09T12:27:24;2.37;;;1.20;;
8594;SDS011;4335;48.860;9.198;2023-01-09T12:30:01;4.23;;;1.47;;
8594;SDS011;4335;48.860;9.198;2023-01-09T12:32:47;2.67;;;1.60;;
8594;SDS011;4335;48.860;9.198;2023-01-09T12:35:27;3.80;;;1.80;;
8594;SDS011;4335;48.860;9.198;2023-01-09T12:38:02;3.27;;;2.07;;
8594;SDS011;4335;48.860;9.198;2023-01-09T12:41:05;3.03;;;1.30;;
8594;SDS011;4335;48.860;9.198;2023-01-09T12:43:50;4.27;;;0.97;;
8594;SDS011;4335;48.860;9.198;2023-01-09T12:46:35;4.63;;;1.40;;
8594;SDS011;4335;48.860;9.198;2023-01-09T12:49:22;4.57;;;1.90;;
8594;SDS011;4335;48.860;9.198;2023-01-09T12:51:57;3.97;;;1.00;;
8594;SDS011;4335;48.860;9.198;2023-01-09T12:54:32;1.57;;;1.20;;
8594;SDS011;4335;48.860;9.198;2023-01-09T12:57:05;2.20;;;1.00;;
8594;SDS011;4335;48.860;9.198;2023-01-09T12:59:41;3.73;;;1.40;;
8594;SDS011;4335;48.860;9.198;2023-01-09T13:02:15;2.00;;;1.20;;
8594;SDS011;4335;48.860;9.198;2023-01-09T13:04:54;2.13;;;1.30;;
8594;SDS011;4335;48.860;9.198;2023-01-09T13:07:28;2.77;;;1.40;;
8594;SDS011;4335;48.860;9.198;2023-01-09T13:10:00;4.43;;;1.60;;
8594;SDS011;4335;48.860;9.198;2023-01-09T13:12:32;2.27;;;1.30;;
8594;SDS011;4335;48.860;9.198;2023-01-09T13:15:04;5.43;;;1.90;;
8594;SDS011;4335;48.860;9.198;2023-01-09T13:17:44;1.90;;;1.63;;
8594;SDS011;4335;48.860;9.198;2023-01-09T13:20:16;4.30;;;2.03;;
8594;SDS011;4335;48.860;9.198;2023-01-09T13:22:51;3.83;;;2.33;;
8594;SDS011;4335;48.860;9.198;2023-01-09T13:25:30;16.00;;;5.60;;
8594;SDS011;4335;48.860;9.198;2023-01-09T13:28:10;3.80;;;1.90;;
8594;SDS011;4335;48.860;9.198;2023-01-09T13:33:43;7.00;;;2.10;;
8594;SDS011;4335;48.860;9.198;2023-01-09T13:36:21;3.27;;;1.87;;
8594;SDS011;4335;48.860;9.198;2023-01-09T13:38:58;4.97;;;1.53;;
8594;SDS011;4335;48.860;9.198;2023-01-09T13:41:27;4.10;;;1.50;;
8594;SDS011;4335;48.860;9.198;2023-01-09T13:44:21;2.70;;;1.30;;
8594;SDS011;4335;48.860;9.198;2023-01-09T13:46:54;3.97;;;1.30;;
8594;SDS011;4335;48.860;9.198;2023-01-09T13:49:29;2.93;;;2.07;;
8594;SDS011;4335;48.860;9.198;2023-01-09T13:51:59;5.57;;;2.00;;
8594;SDS011;4335;48.860;9.198;2023-01-09T13:57:43;2.67;;;1.50;;
8594;SDS011;4335;48.860;9.198;2023-01-09T14:00:48;3.33;;;1.43;;
8594;SDS011;4335;48.860;9.198;2023-01-09T14:03:37;3.33;;;1.33;;
8594;SDS011;4335;48.860;9.198;2023-01-09T14:06:14;1.83;;;1.20;;
8594;SDS011;4335;48.860;9.198;2023-01-09T14:08:43;3.57;;;1.43;;
8594;SDS011;4335;48.860;9.198;2023-01-09T14:11:23;2.57;;;1.43;;
8594;SDS011;4335;48.860;9.198;2023-01-09T14:14:01;1.80;;;0.97;;
8594;SDS011;4335;48.860;9.198;2023-01-09T14:16:30;2.03;;;1.07;;
8594;SDS011;4335;48.860;9.198;2023-01-09T14:19:02;1.50;;;1.00;;
8594;SDS011;4335;48.860;9.198;2023-01-09T14:21:52;2.43;;;1.53;;
8594;SDS011;4335;48.860;9.198;2023-01-09T14:24:25;2.93;;;1.60;;
8594;SDS011;4335;48.860;9.198;2023-01-09T14:26:57;2.33;;;1.30;;
8594;SDS011;4335;48.860;9.198;2023-01-09T14:29:42;2.30;;;1.30;;
8594;SDS011;4335;48.860;9.198;2023-01-09T14:35:19;2.20;;;1.30;;
8594;SDS011;4335;48.860;9.198;2023-01-09T14:38:24;2.63;;;1.10;;
8594;SDS011;4335;48.860;9.198;2023-01-09T14:40:55;2.03;;;1.20;;
8594;SDS011;4335;48.860;9.198;2023-01-09T14:46:21;3.13;;;2.20;;
8594;SDS011;4335;48.860;9.198;2023-01-09T14:49:04;3.37;;;1.70;;
8594;SDS011;4335;48.860;9.198;2023-01-09T14:51:47;5.00;;;2.30;;
8594;SDS011;4335;48.860;9.198;2023-01-09T14:54:26;3.50;;;1.60;;
8594;SDS011;4335;48.860;9.198;2023-01-09T14:56:56;1.10;;;1.00;;
8594;SDS011;4335;48.860;9.198;2023-01-09T14:59:25;2.60;;;1.40;;
8594;SDS011;4335;48.860;9.198;2023-01-09T15:01:55;1.53;;;1.10;;
8594;SDS011;4335;48.860;9.198;2023-01-09T15:04:26;2.43;;;1.03;;
8594;SDS011;4335;48.860;9.198;2023-01-09T15:06:56;2.50;;;1.30;;
8594;SDS011;4335;48.860;9.198;2023-01-09T15:09:23;1.73;;;1.20;;
8594;SDS011;4335;48.860;9.198;2023-01-09T15:11:53;1.63;;;1.10;;
8594;SDS011;4335;48.860;9.198;2023-01-09T15:14:35;2.20;;;1.57;;
8594;SDS011;4335;48.860;9.198;2023-01-09T15:17:05;2.70;;;1.97;;
8594;SDS011;4335;48.860;9.198;2023-01-09T15:19:43;1.63;;;1.40;;
8594;SDS011;4335;48.860;9.198;2023-01-09T15:22:19;2.23;;;1.73;;
8594;SDS011;4335;48.860;9.198;2023-01-09T15:24:48;1.93;;;1.47;;
8594;SDS011;4335;48.860;9.198;2023-01-09T15:27:18;3.23;;;1.90;;
8594;SDS011;4335;48.860;9.198;2023-01-09T15:29:46;2.73;;;2.33;;
8594;SDS011;4335;48.860;9.198;2023-01-09T15:32:15;2.40;;;1.80;;
8594;SDS011;4335;48.860;9.198;2023-01-09T15:34:44;1.60;;;1.30;;
8594;SDS011;4335;48.860;9.198;2023-01-09T15:37:22;2.67;;;1.60;;
8594;SDS011;4335;48.860;9.198;2023-01-09T15:39:52;1.63;;;1.10;;
8594;SDS011;4335;48.860;9.198;2023-01-09T15:42:21;1.30;;;1.20;;
8594;SDS011;4335;48.860;9.198;2023-01-09T15:45:12;1.23;;;1.03;;
8594;SDS011;4335;48.860;9.198;2023-01-09T15:47:45;1.73;;;1.03;;
8594;SDS011;4335;48.860;9.198;2023-01-09T15:50:14;2.97;;;1.43;;
8594;SDS011;4335;48.860;9.198;2023-01-09T15:52:43;2.13;;;1.10;;
8594;SDS011;4335;48.860;9.198;2023-01-09T15:55:23;1.57;;;1.40;;
8594;SDS011;4335;48.860;9.198;2023-01-09T15:57:59;1.50;;;1.00;;
8594;SDS011;4335;48.860;9.198;2023-01-09T16:00:36;3.20;;;1.53;;
8594;SDS011;4335;48.860;9.198;2023-01-09T16:03:15;2.87;;;1.40;;
8594;SDS011;4335;48.860;9.198;2023-01-09T16:05:47;4.17;;;1.50;;
8594;SDS011;4335;48.860;9.198;2023-01-09T16:08:23;2.00;;;1.30;;
8594;SDS011;4335;48.860;9.198;2023-01-09T16:10:55;3.90;;;1.83;;
8594;SDS011;4335;48.860;9.198;2023-01-09T16:13:33;1.67;;;1.33;;
8594;SDS011;4335;48.860;9.198;2023-01-09T16:16:22;1.70;;;1.60;;